createdAt,value
2023-04-20T00:00:03.762Z,1010.88
2023-04-20T00:01:02.593Z,1010.86
2023-04-20T00:02:02.167Z,1010.86
2023-04-20T00:03:01.681Z,1010.83
2023-04-20T00:04:01.900Z,1010.82
2023-04-20T00:05:01.685Z,1010.84
2023-04-20T00:06:02.085Z,1010.83
2023-04-20T00:07:02.402Z,1010.81
2023-04-20T00:08:02.118Z,1010.82
2023-04-20T00:09:02.075Z,1010.79
2023-04-20T00:10:02.325Z,1010.84
2023-04-20T00:11:02.058Z,1010.80
2023-04-20T00:12:02.187Z,1010.77
2023-04-20T00:13:01.836Z,1010.74
2023-04-20T00:14:01.898Z,1010.74
2023-04-20T00:15:01.769Z,1010.68
2023-04-20T00:16:01.646Z,1010.68
2023-04-20T00:17:02.873Z,1010.66
2023-04-20T00:18:02.762Z,1010.66
2023-04-20T00:19:02.440Z,1010.63
2023-04-20T00:20:02.408Z,1010.63
2023-04-20T00:21:02.427Z,1010.63
2023-04-20T00:22:02.290Z,1010.58
2023-04-20T00:23:02.726Z,1010.54
2023-04-20T00:24:02.383Z,1010.52
2023-04-20T00:25:02.616Z,1010.47
2023-04-20T00:26:02.241Z,1010.44
2023-04-20T00:27:02.100Z,1010.39
2023-04-20T00:28:01.880Z,1010.40
2023-04-20T00:29:02.318Z,1010.40
2023-04-20T00:30:01.927Z,1010.44
2023-04-20T00:31:02.402Z,1010.41
2023-04-20T00:32:02.533Z,1010.37
2023-04-20T00:33:01.944Z,1010.37
2023-04-20T00:34:01.954Z,1010.38
2023-04-20T00:35:02.445Z,1010.41
2023-04-20T00:36:01.913Z,1010.37
2023-04-20T00:37:02.957Z,1010.33
2023-04-20T00:38:02.522Z,1010.30
2023-04-20T00:39:02.397Z,1010.30
2023-04-20T00:40:02.747Z,1010.20
2023-04-20T00:41:02.618Z,1010.15
2023-04-20T00:42:02.139Z,1010.17
2023-04-20T00:43:02.084Z,1010.12
2023-04-20T00:44:02.596Z,1010.13
2023-04-20T00:45:02.180Z,1010.14
2023-04-20T00:46:02.054Z,1010.12
2023-04-20T00:47:01.821Z,1010.12
2023-04-20T00:48:01.771Z,1010.10
2023-04-20T00:49:01.675Z,1010.10
2023-04-20T00:50:01.933Z,1010.09
2023-04-20T00:51:01.622Z,1010.04
2023-04-20T00:52:02.198Z,1010.04
2023-04-20T00:53:02.645Z,1009.99
2023-04-20T00:54:02.227Z,1009.96
2023-04-20T00:55:02.057Z,1009.96
2023-04-20T00:56:02.548Z,1009.93
2023-04-20T00:57:02.232Z,1009.90
2023-04-20T00:58:02.745Z,1009.95
2023-04-20T00:59:02.139Z,1009.91
2023-04-20T01:00:02.261Z,1009.91
2023-04-20T01:01:02.753Z,1009.88
2023-04-20T01:02:02.315Z,1009.89
2023-04-20T01:03:02.912Z,1009.92
2023-04-20T01:04:02.682Z,1009.86
2023-04-20T01:05:02.327Z,1009.81
2023-04-20T01:06:02.581Z,1009.85
2023-04-20T01:07:02.446Z,1009.84
2023-04-20T01:08:02.596Z,1009.78
2023-04-20T01:09:02.849Z,1009.78
2023-04-20T01:10:02.453Z,1009.84
2023-04-20T01:11:02.269Z,1009.80
2023-04-20T01:12:03.151Z,1009.78
2023-04-20T01:13:03.158Z,1009.78
2023-04-20T01:14:03.038Z,1009.79
2023-04-20T01:15:02.939Z,1009.78
2023-04-20T01:16:02.851Z,1009.76
2023-04-20T01:17:02.481Z,1009.75
2023-04-20T01:18:02.541Z,1009.76
2023-04-20T01:19:02.293Z,1009.77
2023-04-20T01:20:02.153Z,1009.77
2023-04-20T01:21:02.252Z,1009.75
2023-04-20T01:22:03.197Z,1009.75
2023-04-20T01:23:02.655Z,1009.77
2023-04-20T01:24:02.503Z,1009.73
2023-04-20T01:25:02.979Z,1009.74
2023-04-20T01:26:02.556Z,1009.75
2023-04-20T01:27:03.161Z,1009.74
2023-04-20T01:28:02.935Z,1009.72
2023-04-20T01:29:02.844Z,1009.68
2023-04-20T01:30:02.909Z,1009.70
2023-04-20T01:31:03.345Z,1009.66
2023-04-20T01:32:02.464Z,1009.70
2023-04-20T01:33:02.740Z,1009.66
2023-04-20T01:34:02.737Z,1009.70
2023-04-20T01:35:02.331Z,1009.65
2023-04-20T01:36:02.202Z,1009.60
2023-04-20T01:37:02.463Z,1009.58
2023-04-20T01:38:02.881Z,1009.60
2023-04-20T01:39:02.707Z,1009.57
2023-04-20T01:40:02.600Z,1009.57
2023-04-20T01:41:02.588Z,1009.59
2023-04-20T01:42:03.148Z,1009.57
2023-04-20T01:43:03.041Z,1009.56
2023-04-20T01:44:03.099Z,1009.54
2023-04-20T01:45:03.001Z,1009.52
2023-04-20T01:46:03.420Z,1009.55
2023-04-20T01:47:02.682Z,1009.52
2023-04-20T01:48:02.649Z,1009.47
2023-04-20T01:49:02.919Z,1009.43
2023-04-20T01:50:02.931Z,1009.44
2023-04-20T01:51:02.816Z,1009.44
2023-04-20T01:52:01.940Z,1009.40
2023-04-20T01:53:02.473Z,1009.43
2023-04-20T01:54:02.214Z,1009.38
2023-04-20T01:55:02.006Z,1009.40
2023-04-20T01:56:02.213Z,1009.36
2023-04-20T01:57:02.921Z,1009.36
2023-04-20T01:58:02.413Z,1009.35
2023-04-20T01:59:02.821Z,1009.33
2023-04-20T02:00:02.686Z,1009.38
2023-04-20T02:01:02.479Z,1009.37
2023-04-20T02:02:01.874Z,1009.36
2023-04-20T02:03:01.826Z,1009.36
2023-04-20T02:04:01.915Z,1009.32
2023-04-20T02:05:01.909Z,1009.35
2023-04-20T02:06:01.710Z,1009.34
2023-04-20T02:07:02.326Z,1009.30
2023-04-20T02:08:01.926Z,1009.28
2023-04-20T02:09:02.394Z,1009.28
2023-04-20T02:10:02.030Z,1009.27
2023-04-20T02:11:01.966Z,1009.22
2023-04-20T02:12:02.661Z,1009.26
2023-04-20T02:13:02.674Z,1009.21
2023-04-20T02:14:02.335Z,1009.22
2023-04-20T02:15:02.261Z,1009.20
2023-04-20T02:16:02.516Z,1009.21
2023-04-20T02:17:02.296Z,1009.19
2023-04-20T02:18:02.158Z,1009.20
2023-04-20T02:19:01.941Z,1009.19
2023-04-20T02:20:02.141Z,1009.17
2023-04-20T02:21:01.729Z,1009.11
2023-04-20T02:22:02.064Z,1009.08
2023-04-20T02:23:01.914Z,1009.06
2023-04-20T02:24:01.827Z,1009.06
2023-04-20T02:25:02.318Z,1009.05
2023-04-20T02:26:01.978Z,1009.02
2023-04-20T02:27:02.459Z,1009.05
2023-04-20T02:28:02.324Z,1009.02
2023-04-20T02:29:02.391Z,1008.97
2023-04-20T02:30:02.382Z,1009.01
2023-04-20T02:31:02.057Z,1008.96
2023-04-20T02:32:02.489Z,1008.94
2023-04-20T02:33:02.385Z,1008.92
2023-04-20T02:34:02.656Z,1008.98
2023-04-20T02:35:02.543Z,1008.92
2023-04-20T02:36:02.392Z,1008.92
2023-04-20T02:37:02.039Z,1008.90
2023-04-20T02:38:01.589Z,1008.89
2023-04-20T02:39:01.487Z,1008.90
2023-04-20T02:40:01.504Z,1008.91
2023-04-20T02:41:01.564Z,1008.88
2023-04-20T02:42:01.599Z,1008.87
2023-04-20T02:43:01.786Z,1008.84
2023-04-20T02:44:01.679Z,1008.85
2023-04-20T02:45:01.749Z,1008.81
2023-04-20T02:46:01.666Z,1008.81
2023-04-20T02:47:02.100Z,1008.78
2023-04-20T02:48:02.036Z,1008.74
2023-04-20T02:49:01.664Z,1008.72
2023-04-20T02:50:01.774Z,1008.71
2023-04-20T02:51:01.817Z,1008.70
2023-04-20T02:52:02.382Z,1008.71
2023-04-20T02:53:01.973Z,1008.65
2023-04-20T02:54:02.142Z,1008.63
2023-04-20T02:55:01.997Z,1008.62
2023-04-20T02:56:02.371Z,1008.60
2023-04-20T02:57:02.316Z,1008.61
2023-04-20T02:58:02.215Z,1008.62
2023-04-20T02:59:02.716Z,1008.63
2023-04-20T03:00:02.491Z,1008.63
2023-04-20T03:01:02.418Z,1008.62
2023-04-20T03:02:02.983Z,1008.62
2023-04-20T03:03:03.061Z,1008.62
2023-04-20T03:04:02.902Z,1008.60
2023-04-20T03:05:02.708Z,1008.58
2023-04-20T03:06:02.543Z,1008.57
2023-04-20T03:07:03.157Z,1008.58
2023-04-20T03:08:03.273Z,1008.54
2023-04-20T03:09:03.175Z,1008.53
2023-04-20T03:10:03.567Z,1008.55
2023-04-20T03:11:03.198Z,1008.53
2023-04-20T03:12:03.401Z,1008.50
2023-04-20T03:13:03.198Z,1008.50
2023-04-20T03:14:03.299Z,1008.50
2023-04-20T03:15:03.115Z,1008.53
2023-04-20T03:16:03.344Z,1008.51
2023-04-20T03:17:02.250Z,1008.52
2023-04-20T03:18:02.608Z,1008.52
2023-04-20T03:19:02.384Z,1008.51
2023-04-20T03:20:02.816Z,1008.53
2023-04-20T03:21:02.333Z,1008.47
2023-04-20T03:22:02.958Z,1008.50
2023-04-20T03:23:03.522Z,1008.49
2023-04-20T03:24:03.161Z,1008.47
2023-04-20T03:25:03.005Z,1008.48
2023-04-20T03:26:03.336Z,1008.47
2023-04-20T03:27:02.483Z,1008.48
2023-04-20T03:28:03.258Z,1008.44
2023-04-20T03:29:02.796Z,1008.47
2023-04-20T03:30:02.619Z,1008.43
2023-04-20T03:31:02.894Z,1008.43
2023-04-20T03:32:02.839Z,1008.41
2023-04-20T03:33:03.269Z,1008.43
2023-04-20T03:34:02.927Z,1008.41
2023-04-20T03:35:03.225Z,1008.46
2023-04-20T03:36:03.090Z,1008.43
2023-04-20T03:37:02.921Z,1008.44
2023-04-20T03:38:03.514Z,1008.39
2023-04-20T03:39:03.526Z,1008.42
2023-04-20T03:40:03.116Z,1008.44
2023-04-20T03:41:03.387Z,1008.42
2023-04-20T03:42:02.293Z,1008.45
2023-04-20T03:43:02.816Z,1008.44
2023-04-20T03:44:02.242Z,1008.45
2023-04-20T03:45:02.256Z,1008.47
2023-04-20T03:46:02.740Z,1008.46
2023-04-20T03:47:02.482Z,1008.46
2023-04-20T03:48:02.742Z,1008.48
2023-04-20T03:49:02.643Z,1008.45
2023-04-20T03:50:02.951Z,1008.45
2023-04-20T03:51:02.577Z,1008.50
2023-04-20T03:52:02.446Z,1008.43
2023-04-20T03:53:02.584Z,1008.48
2023-04-20T03:54:02.363Z,1008.49
2023-04-20T03:55:03.000Z,1008.46
2023-04-20T03:56:02.565Z,1008.44
2023-04-20T03:57:03.099Z,1008.45
2023-04-20T03:58:03.574Z,1008.43
2023-04-20T03:59:03.326Z,1008.41
2023-04-20T04:00:03.198Z,1008.37
2023-04-20T04:01:03.061Z,1008.37
2023-04-20T04:02:02.654Z,1008.32
2023-04-20T04:03:03.314Z,1008.31
2023-04-20T04:04:02.791Z,1008.29
2023-04-20T04:05:02.688Z,1008.31
2023-04-20T04:06:02.653Z,1008.35
2023-04-20T04:07:02.053Z,1008.31
2023-04-20T04:08:02.422Z,1008.29
2023-04-20T04:09:02.117Z,1008.30
2023-04-20T04:10:01.923Z,1008.29
2023-04-20T04:11:02.463Z,1008.29
2023-04-20T04:12:02.291Z,1008.26
2023-04-20T04:13:02.227Z,1008.23
2023-04-20T04:14:02.085Z,1008.21
2023-04-20T04:15:02.287Z,1008.21
2023-04-20T04:16:02.148Z,1008.22
2023-04-20T04:17:02.257Z,1008.23
2023-04-20T04:18:02.605Z,1008.17
2023-04-20T04:19:02.692Z,1008.19
2023-04-20T04:20:02.125Z,1008.17
2023-04-20T04:21:02.472Z,1008.21
2023-04-20T04:22:02.303Z,1008.17
2023-04-20T04:23:02.419Z,1008.18
2023-04-20T04:24:02.374Z,1008.22
2023-04-20T04:25:02.378Z,1008.24
2023-04-20T04:26:02.326Z,1008.19
2023-04-20T04:27:02.946Z,1008.19
2023-04-20T04:28:02.883Z,1008.18
2023-04-20T04:29:03.137Z,1008.17
2023-04-20T04:30:03.118Z,1008.19
2023-04-20T04:31:02.975Z,1008.18
2023-04-20T04:32:02.714Z,1008.17
2023-04-20T04:33:02.542Z,1008.19
2023-04-20T04:34:02.787Z,1008.19
2023-04-20T04:35:02.649Z,1008.18
2023-04-20T04:36:02.638Z,1008.16
2023-04-20T04:37:02.197Z,1008.17
2023-04-20T04:38:02.136Z,1008.15
2023-04-20T04:39:02.187Z,1008.16
2023-04-20T04:40:02.871Z,1008.14
2023-04-20T04:41:02.008Z,1008.09
2023-04-20T04:42:04.752Z,1008.07
2023-04-20T04:43:02.296Z,1008.08
2023-04-20T04:44:02.432Z,1008.10
2023-04-20T04:45:02.364Z,1008.13
2023-04-20T04:46:02.559Z,1008.09
2023-04-20T04:47:02.270Z,1008.06
2023-04-20T04:48:02.232Z,1008.09
2023-04-20T04:49:02.112Z,1008.04
2023-04-20T04:50:01.978Z,1008.05
2023-04-20T04:51:01.886Z,1008.07
2023-04-20T04:52:02.895Z,1008.05
2023-04-20T04:53:02.583Z,1008.04
2023-04-20T04:54:02.548Z,1008.02
2023-04-20T04:55:02.949Z,1008.03
2023-04-20T04:56:02.495Z,1007.98
2023-04-20T04:57:03.047Z,1008.02
2023-04-20T04:58:03.133Z,1008.02
2023-04-20T04:59:02.734Z,1008.00
2023-04-20T05:00:02.632Z,1008.02
2023-04-20T05:01:02.722Z,1007.99
2023-04-20T05:02:02.892Z,1008.01
2023-04-20T05:03:02.825Z,1007.99
2023-04-20T05:04:02.496Z,1007.98
2023-04-20T05:05:02.794Z,1008.00
2023-04-20T05:06:02.580Z,1008.00
2023-04-20T05:07:02.697Z,1007.99
2023-04-20T05:08:02.802Z,1007.98
2023-04-20T05:09:02.450Z,1007.97
2023-04-20T05:10:02.436Z,1007.98
2023-04-20T05:11:02.633Z,1007.99
2023-04-20T05:12:03.285Z,1007.99
2023-04-20T05:13:02.883Z,1007.97
2023-04-20T05:14:03.218Z,1008.01
2023-04-20T05:15:02.930Z,1007.99
2023-04-20T05:16:03.438Z,1007.99
2023-04-20T05:17:02.738Z,1007.98
2023-04-20T05:18:02.628Z,1007.98
2023-04-20T05:19:02.443Z,1008.03
2023-04-20T05:20:02.851Z,1007.99
2023-04-20T05:21:02.549Z,1008.05
2023-04-20T05:22:02.968Z,1008.02
2023-04-20T05:23:03.214Z,1008.03
2023-04-20T05:24:02.958Z,1008.06
2023-04-20T05:25:02.810Z,1008.04
2023-04-20T05:26:02.943Z,1008.02
2023-04-20T05:27:02.655Z,1008.02
2023-04-20T05:28:02.396Z,1008.04
2023-04-20T05:29:02.344Z,1008.05
2023-04-20T05:30:13.146Z,1008.06
2023-04-20T05:31:02.270Z,1008.05
2023-04-20T05:32:02.998Z,1008.08
2023-04-20T05:33:02.716Z,1008.05
2023-04-20T05:34:03.037Z,1008.07
2023-04-20T05:35:02.641Z,1008.12
2023-04-20T05:36:02.495Z,1008.06
2023-04-20T05:37:03.152Z,1008.07
2023-04-20T05:38:02.901Z,1008.06
2023-04-20T05:39:02.667Z,1008.09
2023-04-20T05:40:03.112Z,1008.10
2023-04-20T05:41:02.714Z,1008.06
2023-04-20T05:42:02.493Z,1008.07
2023-04-20T05:43:02.017Z,1008.07
2023-04-20T05:44:02.080Z,1008.10
2023-04-20T05:45:02.297Z,1008.10
2023-04-20T05:46:02.510Z,1008.04
2023-04-20T05:47:02.379Z,1008.03
2023-04-20T05:48:02.763Z,1008.04
2023-04-20T05:49:02.534Z,1008.03
2023-04-20T05:50:02.505Z,1008.02
2023-04-20T05:51:02.289Z,1008.03
2023-04-20T05:52:02.593Z,1008.01
2023-04-20T05:53:01.916Z,1008.03
2023-04-20T05:54:02.452Z,1008.06
2023-04-20T05:55:02.498Z,1008.04
2023-04-20T05:56:02.145Z,1008.00
2023-04-20T05:57:02.859Z,1008.04
2023-04-20T05:58:02.710Z,1008.01
2023-04-20T05:59:02.566Z,1008.03
2023-04-20T06:00:02.545Z,1008.03
2023-04-20T06:01:02.738Z,1008.04
2023-04-20T06:02:03.388Z,1008.05
2023-04-20T06:03:03.366Z,1008.04
2023-04-20T06:04:03.204Z,1008.01
2023-04-20T06:05:03.035Z,1008.02
2023-04-20T06:06:03.184Z,1008.00
2023-04-20T06:07:02.669Z,1008.02
2023-04-20T06:08:03.244Z,1008.04
2023-04-20T06:09:03.283Z,1008.04
2023-04-20T06:10:03.036Z,1007.99
2023-04-20T06:11:03.045Z,1008.02
2023-04-20T06:12:03.659Z,1008.03
2023-04-20T06:13:03.123Z,1008.02
2023-04-20T06:14:03.369Z,1008.05
2023-04-20T06:15:03.383Z,1008.05
2023-04-20T06:16:03.474Z,1008.01
2023-04-20T06:17:02.441Z,1008.05
2023-04-20T06:18:03.055Z,1008.06
2023-04-20T06:19:03.001Z,1008.04
2023-04-20T06:20:02.689Z,1008.04
2023-04-20T06:21:02.493Z,1008.03
2023-04-20T06:22:02.770Z,1008.03
2023-04-20T06:23:03.317Z,1008.01
2023-04-20T06:24:02.888Z,1008.02
2023-04-20T06:25:03.138Z,1008.02
2023-04-20T06:26:03.334Z,1008.02
2023-04-20T06:27:03.677Z,1008.01
2023-04-20T06:28:03.376Z,1008.03
2023-04-20T06:29:03.347Z,1008.04
2023-04-20T06:30:03.198Z,1008.04
2023-04-20T06:31:03.323Z,1008.04
2023-04-20T06:32:02.315Z,1008.03
2023-04-20T06:33:02.597Z,1007.99
2023-04-20T06:34:02.499Z,1008.05
2023-04-20T06:35:02.334Z,1008.02
2023-04-20T06:36:02.483Z,1008.02
2023-04-20T06:37:02.702Z,1008.02
2023-04-20T06:38:02.451Z,1008.00
2023-04-20T06:39:02.375Z,1007.98
2023-04-20T06:40:03.074Z,1007.99
2023-04-20T06:41:02.475Z,1008.00
2023-04-20T06:42:03.101Z,1008.03
2023-04-20T06:43:03.681Z,1008.01
2023-04-20T06:44:03.398Z,1007.97
2023-04-20T06:45:03.360Z,1007.96
2023-04-20T06:46:03.235Z,1008.02
2023-04-20T06:47:03.596Z,1007.99
2023-04-20T06:48:03.525Z,1007.96
2023-04-20T06:49:03.651Z,1007.96
2023-04-20T06:50:03.561Z,1008.02
2023-04-20T06:51:03.343Z,1007.98
2023-04-20T06:52:03.214Z,1007.97
2023-04-20T06:53:02.886Z,1007.97
2023-04-20T06:54:03.112Z,1007.95
2023-04-20T06:55:03.039Z,1007.94
2023-04-20T06:56:03.055Z,1007.92
2023-04-20T06:57:02.926Z,1007.92
2023-04-20T06:58:03.202Z,1007.94
2023-04-20T06:59:03.213Z,1007.94
2023-04-20T07:00:03.020Z,1007.91
2023-04-20T07:01:02.797Z,1007.93
2023-04-20T07:02:02.892Z,1007.92
2023-04-20T07:03:02.779Z,1007.89
2023-04-20T07:04:02.677Z,1007.85
2023-04-20T07:05:02.885Z,1007.87
2023-04-20T07:06:02.461Z,1007.89
2023-04-20T07:07:02.769Z,1007.88
2023-04-20T07:08:02.656Z,1007.86
2023-04-20T07:09:03.181Z,1007.85
2023-04-20T07:10:02.919Z,1007.85
2023-04-20T07:11:02.695Z,1007.89
2023-04-20T07:12:02.073Z,1007.88
2023-04-20T07:13:02.043Z,1007.86
2023-04-20T07:14:02.009Z,1007.89
2023-04-20T07:15:02.295Z,1007.86
2023-04-20T07:16:02.300Z,1007.83
2023-04-20T07:17:02.179Z,1007.83
2023-04-20T07:18:02.373Z,1007.82
2023-04-20T07:19:02.227Z,1007.84
2023-04-20T07:20:02.356Z,1007.80
2023-04-20T07:21:02.040Z,1007.80
2023-04-20T07:22:02.383Z,1007.81
2023-04-20T07:23:02.326Z,1007.84
2023-04-20T07:24:02.294Z,1007.81
2023-04-20T07:25:02.839Z,1007.83
2023-04-20T07:26:02.496Z,1007.82
2023-04-20T07:27:02.446Z,1007.81
2023-04-20T07:28:02.360Z,1007.81
2023-04-20T07:29:02.825Z,1007.81
2023-04-20T07:30:02.633Z,1007.82
2023-04-20T07:31:02.251Z,1007.81
2023-04-20T07:32:02.881Z,1007.82
2023-04-20T07:33:02.833Z,1007.81
2023-04-20T07:34:02.956Z,1007.77
2023-04-20T07:35:02.890Z,1007.78
2023-04-20T07:36:02.851Z,1007.80
2023-04-20T07:37:02.535Z,1007.79
2023-04-20T07:38:02.412Z,1007.78
2023-04-20T07:39:02.713Z,1007.80
2023-04-20T07:40:02.679Z,1007.77
2023-04-20T07:41:02.549Z,1007.80
2023-04-20T07:42:02.098Z,1007.82
2023-04-20T07:43:01.981Z,1007.83
2023-04-20T07:44:01.873Z,1007.82
2023-04-20T07:45:01.841Z,1007.84
2023-04-20T07:46:02.448Z,1007.83
2023-04-20T07:47:03.011Z,1007.85
2023-04-20T07:48:02.896Z,1007.84
2023-04-20T07:49:02.499Z,1007.84
2023-04-20T07:50:02.490Z,1007.85
2023-04-20T07:51:02.441Z,1007.84
2023-04-20T07:52:15.095Z,1007.82
2023-04-20T07:53:02.037Z,1007.83
2023-04-20T07:54:02.553Z,1007.82
2023-04-20T07:55:02.302Z,1007.81
2023-04-20T07:56:02.572Z,1007.81
2023-04-20T07:57:03.122Z,1007.82
2023-04-20T07:58:03.155Z,1007.80
2023-04-20T07:59:02.687Z,1007.83
2023-04-20T08:00:03.265Z,1007.77
2023-04-20T08:01:02.852Z,1007.80
2023-04-20T08:02:02.631Z,1007.79
2023-04-20T08:03:02.509Z,1007.78
2023-04-20T08:04:02.744Z,1007.80
2023-04-20T08:05:02.975Z,1007.78
2023-04-20T08:06:02.264Z,1007.75
2023-04-20T08:07:02.711Z,1007.76
2023-04-20T08:08:02.470Z,1007.72
2023-04-20T08:09:02.411Z,1007.74
2023-04-20T08:10:02.264Z,1007.73
2023-04-20T08:11:02.348Z,1007.76
2023-04-20T08:12:03.002Z,1007.73
2023-04-20T08:13:02.505Z,1007.75
2023-04-20T08:14:02.939Z,1007.74
2023-04-20T08:15:02.899Z,1007.73
2023-04-20T08:16:02.984Z,1007.78
2023-04-20T08:17:02.602Z,1007.76
2023-04-20T08:18:02.430Z,1007.76
2023-04-20T08:19:02.304Z,1007.77
2023-04-20T08:20:02.102Z,1007.75
2023-04-20T08:21:02.102Z,1007.73
2023-04-20T08:22:03.434Z,1007.75
2023-04-20T08:23:02.656Z,1007.79
2023-04-20T08:24:02.519Z,1007.82
2023-04-20T08:25:02.482Z,1007.81
2023-04-20T08:26:02.972Z,1007.80
2023-04-20T08:27:03.260Z,1007.79
2023-04-20T08:28:04.287Z,1007.79
2023-04-20T08:29:03.074Z,1007.78
2023-04-20T08:30:02.848Z,1007.76
2023-04-20T08:31:02.843Z,1007.74
2023-04-20T08:32:02.881Z,1007.72
2023-04-20T08:33:02.266Z,1007.73
2023-04-20T08:34:02.110Z,1007.73
2023-04-20T08:35:02.059Z,1007.73
2023-04-20T08:36:02.637Z,1007.76
2023-04-20T08:37:02.683Z,1007.74
2023-04-20T08:38:02.433Z,1007.72
2023-04-20T08:39:02.408Z,1007.73
2023-04-20T08:40:02.386Z,1007.74
2023-04-20T08:41:02.179Z,1007.73
2023-04-20T08:42:02.622Z,1007.74
2023-04-20T08:43:02.600Z,1007.73
2023-04-20T08:44:02.480Z,1007.70
2023-04-20T08:45:02.659Z,1007.73
2023-04-20T08:46:02.443Z,1007.73
2023-04-20T08:47:03.194Z,1007.72
2023-04-20T08:48:03.027Z,1007.75
2023-04-20T08:49:02.876Z,1007.73
2023-04-20T08:50:02.651Z,1007.76
2023-04-20T08:51:02.562Z,1007.71
2023-04-20T08:52:02.566Z,1007.66
2023-04-20T08:53:03.064Z,1007.69
2023-04-20T08:54:02.926Z,1007.75
2023-04-20T08:55:02.736Z,1007.71
2023-04-20T08:56:02.749Z,1007.69
2023-04-20T08:57:02.535Z,1007.70
2023-04-20T08:58:02.218Z,1007.70
2023-04-20T08:59:01.993Z,1007.68
2023-04-20T09:00:02.224Z,1007.69
2023-04-20T09:01:02.136Z,1007.67
2023-04-20T09:02:02.880Z,1007.69
2023-04-20T09:03:02.541Z,1007.68
2023-04-20T09:04:02.936Z,1007.69
2023-04-20T09:05:02.684Z,1007.64
2023-04-20T09:06:02.497Z,1007.62
2023-04-20T09:07:02.504Z,1007.64
2023-04-20T09:08:02.698Z,1007.61
2023-04-20T09:09:02.677Z,1007.63
2023-04-20T09:10:02.468Z,1007.57
2023-04-20T09:11:03.120Z,1007.56
2023-04-20T09:12:03.482Z,1007.60
2023-04-20T09:13:03.157Z,1007.61
2023-04-20T09:14:03.389Z,1007.56
2023-04-20T09:15:03.243Z,1007.56
2023-04-20T09:16:03.172Z,1007.54
2023-04-20T09:17:02.224Z,1007.57
2023-04-20T09:18:02.910Z,1007.52
2023-04-20T09:19:02.305Z,1007.56
2023-04-20T09:20:02.314Z,1007.56
2023-04-20T09:21:02.840Z,1007.56
2023-04-20T09:22:02.588Z,1007.58
2023-04-20T09:23:03.086Z,1007.55
2023-04-20T09:24:03.053Z,1007.54
2023-04-20T09:25:02.938Z,1007.59
2023-04-20T09:26:03.137Z,1007.54
2023-04-20T09:27:02.815Z,1007.52
2023-04-20T09:28:03.475Z,1007.57
2023-04-20T09:29:03.237Z,1007.48
2023-04-20T09:30:03.183Z,1007.52
2023-04-20T09:31:03.132Z,1007.49
2023-04-20T09:32:02.097Z,1007.51
2023-04-20T09:33:02.710Z,1007.53
2023-04-20T09:34:02.416Z,1007.50
2023-04-20T09:35:02.410Z,1007.47
2023-04-20T09:36:02.291Z,1007.53
2023-04-20T09:37:02.122Z,1007.52
2023-04-20T09:38:02.121Z,1007.56
2023-04-20T09:39:02.357Z,1007.50
2023-04-20T09:40:02.351Z,1007.53
2023-04-20T09:41:02.144Z,1007.52
2023-04-20T09:42:02.810Z,1007.60
2023-04-20T09:43:02.768Z,1007.54
2023-04-20T09:44:03.238Z,1007.57
2023-04-20T09:45:03.163Z,1007.57
2023-04-20T09:46:03.165Z,1007.60
2023-04-20T09:47:02.444Z,1007.59
2023-04-20T09:48:02.358Z,1007.59
2023-04-20T09:49:02.948Z,1007.55
2023-04-20T09:50:14.052Z,1007.53
2023-04-20T09:51:02.622Z,1007.59
2023-04-20T09:52:02.509Z,1007.60
2023-04-20T09:53:02.470Z,1007.58
2023-04-20T09:54:02.478Z,1007.57
2023-04-20T09:55:03.043Z,1007.54
2023-04-20T09:56:02.688Z,1007.56
2023-04-20T09:57:02.646Z,1007.57
2023-04-20T09:58:03.162Z,1007.60
2023-04-20T09:59:02.759Z,1007.56
2023-04-20T10:00:03.115Z,1007.52
2023-04-20T10:01:02.900Z,1007.52
2023-04-20T10:02:02.841Z,1007.50
2023-04-20T10:03:02.992Z,1007.48
2023-04-20T10:04:03.425Z,1007.46
2023-04-20T10:05:03.454Z,1007.38
2023-04-20T10:06:03.243Z,1007.45
2023-04-20T10:07:02.981Z,1007.46
2023-04-20T10:08:03.023Z,1007.46
2023-04-20T10:09:02.872Z,1007.46
2023-04-20T10:10:03.388Z,1007.46
2023-04-20T10:11:03.365Z,1007.50
2023-04-20T10:12:02.242Z,1007.49
2023-04-20T10:13:02.746Z,1007.48
2023-04-20T10:14:02.432Z,1007.44
2023-04-20T10:15:02.109Z,1007.46
2023-04-20T10:16:02.697Z,1007.45
2023-04-20T10:17:02.520Z,1007.43
2023-04-20T10:18:02.713Z,1007.48
2023-04-20T10:19:02.590Z,1007.41
2023-04-20T10:20:02.590Z,1007.43
2023-04-20T10:21:02.594Z,1007.42
2023-04-20T10:22:02.596Z,1007.43
2023-04-20T10:23:02.621Z,1007.42
2023-04-20T10:24:02.741Z,1007.41
2023-04-20T10:25:02.734Z,1007.38
2023-04-20T10:26:02.780Z,1007.39
2023-04-20T10:27:02.724Z,1007.45
2023-04-20T10:28:02.820Z,1007.41
2023-04-20T10:29:02.887Z,1007.44
2023-04-20T10:30:02.864Z,1007.46
2023-04-20T10:31:02.846Z,1007.43
2023-04-20T10:32:02.754Z,1007.45
2023-04-20T10:33:02.918Z,1007.43
2023-04-20T10:34:02.866Z,1007.44
2023-04-20T10:35:02.957Z,1007.45
2023-04-20T10:36:03.056Z,1007.44
2023-04-20T10:37:02.197Z,1007.44
2023-04-20T10:38:02.275Z,1007.40
2023-04-20T10:39:02.341Z,1007.43
2023-04-20T10:40:02.456Z,1007.43
2023-04-20T10:41:02.344Z,1007.38
2023-04-20T10:42:02.262Z,1007.46
2023-04-20T10:43:02.358Z,1007.39
2023-04-20T10:44:02.403Z,1007.41
2023-04-20T10:45:02.400Z,1007.40
2023-04-20T10:46:02.551Z,1007.42
2023-04-20T10:47:02.772Z,1007.39
2023-04-20T10:48:02.880Z,1007.46
2023-04-20T10:49:02.983Z,1007.42
2023-04-20T10:50:02.951Z,1007.40
2023-04-20T10:51:02.983Z,1007.44
2023-04-20T10:52:02.991Z,1007.39
2023-04-20T10:53:02.872Z,1007.45
2023-04-20T10:54:02.851Z,1007.50
2023-04-20T10:55:02.822Z,1007.49
2023-04-20T10:56:03.408Z,1007.47
2023-04-20T10:57:02.488Z,1007.47
2023-04-20T10:58:02.382Z,1007.48
2023-04-20T10:59:02.481Z,1007.51
2023-04-20T11:00:02.456Z,1007.44
2023-04-20T11:01:02.434Z,1007.44
2023-04-20T11:02:03.166Z,1007.43
2023-04-20T11:03:03.266Z,1007.43
2023-04-20T11:04:03.399Z,1007.43
2023-04-20T11:05:02.910Z,1007.42
2023-04-20T11:06:02.973Z,1007.40
2023-04-20T11:07:03.232Z,1007.36
2023-04-20T11:08:03.340Z,1007.35
2023-04-20T11:09:02.985Z,1007.36
2023-04-20T11:10:02.978Z,1007.34
2023-04-20T11:11:03.025Z,1007.34
2023-04-20T11:12:02.817Z,1007.37
2023-04-20T11:13:02.809Z,1007.34
2023-04-20T11:14:02.862Z,1007.31
2023-04-20T11:15:02.935Z,1007.30
2023-04-20T11:16:03.099Z,1007.34
2023-04-20T11:17:03.383Z,1007.29
2023-04-20T11:18:03.575Z,1007.28
2023-04-20T11:19:03.553Z,1007.29
2023-04-20T11:20:03.571Z,1007.25
2023-04-20T11:21:03.377Z,1007.29
2023-04-20T11:22:02.847Z,1007.25
2023-04-20T11:23:02.972Z,1007.26
2023-04-20T11:24:02.932Z,1007.25
2023-04-20T11:25:03.021Z,1007.19
2023-04-20T11:26:03.037Z,1007.23
2023-04-20T11:27:02.860Z,1007.17
2023-04-20T11:28:03.266Z,1007.18
2023-04-20T11:29:03.097Z,1007.22
2023-04-20T11:30:02.906Z,1007.21
2023-04-20T11:31:02.919Z,1007.21
2023-04-20T11:32:03.070Z,1007.18
2023-04-20T11:33:02.923Z,1007.19
2023-04-20T11:34:04.824Z,1007.16
2023-04-20T11:35:06.493Z,1007.22
2023-04-20T11:36:03.163Z,1007.23
2023-04-20T11:37:03.029Z,1007.20
2023-04-20T11:38:03.043Z,1007.24
2023-04-20T11:39:03.087Z,1007.23
2023-04-20T11:40:03.156Z,1007.20
2023-04-20T11:41:02.781Z,1007.27
2023-04-20T11:42:03.487Z,1007.22
2023-04-20T11:43:03.494Z,1007.23
2023-04-20T11:44:03.572Z,1007.27
2023-04-20T11:45:03.524Z,1007.27
2023-04-20T11:46:03.724Z,1007.24
2023-04-20T11:47:02.666Z,1007.22
2023-04-20T11:48:02.881Z,1007.18
2023-04-20T11:49:02.736Z,1007.21
2023-04-20T11:50:02.548Z,1007.24
2023-04-20T11:51:02.674Z,1007.22
2023-04-20T11:52:03.203Z,1007.20
2023-04-20T11:53:02.797Z,1007.17
2023-04-20T11:54:02.742Z,1007.18
2023-04-20T11:55:02.875Z,1007.13
2023-04-20T11:56:03.029Z,1007.15
2023-04-20T11:57:02.733Z,1007.14
2023-04-20T11:58:02.708Z,1007.16
2023-04-20T11:59:02.677Z,1007.13
2023-04-20T12:00:02.776Z,1007.13
2023-04-20T12:01:02.653Z,1007.12
2023-04-20T12:02:02.523Z,1007.09
2023-04-20T12:03:02.524Z,1007.10
2023-04-20T12:04:02.773Z,1007.06
2023-04-20T12:05:02.107Z,1007.07